Tiempo atmosférico en la estación meteorológica de Fuente De Piedra, Málaga (423 m.)

Fecha
DESCASC
Temp. máxima en grados centígrados (hora)
DESCASC
Temp. mínima en grados centígrados (hora)
DESCASC
Temp. media en grados centígrados
DESCASC
Racha de viento máxima en m/sg (hora)
DESCASC
Velocidad máxima media en intervalos de 10 minutos(hora)
DESCASC
Precipitaciones diarias en mm
DESCASC
Precipitaciones de 00:00 a 06:00 en mm
DESCASC
Precipitaciones de 06:00 a 12:00 en mm
DESCASC
Precipitaciones de 12:00 a 18:00 en mm
DESCASC
Precipitaciones de 18:00 a 24:00 en mm
DESCASC
17-08-2017 35.9 (17:40) 18.3 (07:20) 27.1 10 (13:00) 7.22 (12:30) 0 0 0 0 0
16-08-2017 37.8 (16:00) 18.3 (08:10) 28 8.61 (19:40) 5.56 (19:10) 0 0 0 0 0
15-08-2017 36.1 (16:50) 18.9 (00:00) 27.5 8.89 (17:20) 5.83 (00:20) 0 0 0 0 0
14-08-2017 30.2 (17:10) 20.6 (06:50) 25.4 15 (11:20) 11.11 (12:40) 0 0 0 0 0
13-08-2017 29.4 (16:30) 19.2 (00:00) 24.3 14.72 (15:40) 10.83 (15:20) 0 0 0 0 0
12-08-2017 30.2 (15:30) 19.9 (00:00) 25.1 15.83 (16:10) 10.83 (16:10) 0 0 0 0 0
11-08-2017 30.7 (17:50) 20.1 (00:00) 25.4 13.06 (13:50) 7.78 (14:10) 0 0 0 0 0
10-08-2017 30.1 (15:40) 14.9 (00:00) 22.5 11.67 (17:00) 8.06 (16:40) 0 0 0 0 0
09-08-2017 32.1 (16:50) 14 (00:00) 23 10.83 (18:40) 6.67 (19:10) 0 0 0 0 0
08-08-2017 34.2 (17:40) 20.3 (00:00) 27.3 10 (17:10) 5.83 (16:40) 0 0 0 0 0
07-08-2017 37.9 (16:00) 22.7 (00:00) 30.3 10 (15:50) 6.67 (15:30) 0 0 0 0 0
06-08-2017 41.4 (16:50) 19.6 (00:00) 30.5 9.44 (20:20) 7.22 (20:20) 0 0 0 0 0
05-08-2017 40.6 (15:10) 21.4 (00:00) 31 9.17 (17:20) 6.39 (16:00) 0 0 0 0 0
04-08-2017 41.8 (16:50) 18.5 (00:00) 30.1 6.67 (17:40) 4.44 (21:00) 0 0 0 0 0
03-08-2017 39 (17:10) 16.3 (00:00) 27.6 7.5 (14:00) 4.72 (17:20) 0 0 0 0 0
02-08-2017 36.4 (16:30) 15.4 (00:00) 25.9 7.5 (17:00) 4.17 (19:20) 0 0 0 0 0
01-08-2017 31.5 (17:50) 16.8 (00:00) 24.1 8.33 (16:20) 5.56 (18:00) 0 0 0 0 0
31-07-2017 36 (17:10) 20.1 (00:00) 28.1 11.11 (20:10) 7.22 (20:10) 0 0 0 0 0
30-07-2017 39.8 (17:40) 18.1 (00:00) 28.9 8.33 (18:10) 5.83 (18:50) 0 0 0 0 0
29-07-2017 39.2 (15:10) 17 (00:00) 28.1 9.44 (18:00) 6.11 (19:50) 0 0 0 0 0
28-07-2017 39.3 (17:40) 18.2 (00:00) 28.8 8.89 (15:20) 5.56 (20:30) 0 0 0 0 0
27-07-2017 38.2 (17:10) 19.2 (00:00) 28.7 7.78 (17:40) 5.28 (17:50) 0 0 0 0 0
26-07-2017 35.6 (17:30) 19.2 (00:00) 27.4 6.94 (17:00) 4.17 (16:00) 0 0 0 0 0
25-07-2017 37.5 (17:00) 18.4 (00:00) 27.9 10 (19:20) 6.39 (19:20) 0 0 0 0 0
24-07-2017 36.3 (17:50) 16.5 (00:00) 26.4 9.72 (17:50) 5.56 (16:50) 0 0 0 0 0
23-07-2017 35.9 (17:00) 16.1 (00:00) 26 8.61 (17:40) 4.44 (19:20) 0 0 0 0 0
22-07-2017 34.4 (18:50) 13.1 (00:00) 23.8 8.89 (19:00) 5 (19:10) 0 0 0 0 0

Gráficas

Temp. máximas Temp. mínimas Temp. medias Precipitaciones Rachas de viento máximas Velocidades máximas media en intervalos de 10 minutos

Datos horarios

Fecha y hora oficial Temperatura (ºC) Velocidad del viento (km/h) Dirección del viento Racha (km/h) Dirección de racha Precipitación (mm) Presión (hPa) Tendencia (hPa) Humedad (%)
2017-08-20 23:00:00 23.7 29 Sur 49 Sur 0 -- -- 76
2017-08-20 22:00:00 24.4 37 Sur 56 Sur 0 -- -- 73
2017-08-20 21:00:00 25.4 30 Sur 50 Sur 0 -- -- 65
2017-08-20 20:00:00 27 38 Sur 55 Sur 0 -- -- 59
2017-08-20 19:00:00 28.9 37 Sur 52 Sur 0 -- -- 52
2017-08-20 18:00:00 30.6 34 Sur 51 Sur 0 -- -- 45
2017-08-20 17:00:00 31.3 33 Sur 53 Sur 0 -- -- 43
2017-08-20 16:00:00 31 37 Sur 52 Sur 0 -- -- 46
2017-08-20 15:00:00 31.2 34 Sur 51 Sur 0 -- -- 45
2017-08-20 14:00:00 31 34 Sur 53 Sur 0 -- -- 44
2017-08-20 13:00:00 29.9 36 Sur 51 Sur 0 -- -- 48
2017-08-20 12:00:00 28.6 32 Sur 45 Sur 0 -- -- 54
2017-08-20 11:00:00 27 27 Sur 43 Sur 0 -- -- 61
2017-08-20 10:00:00 24.8 32 Sur 42 Sur 0 -- -- 71
2017-08-20 09:00:00 23.4 24 Sur 37 Sur 0 -- -- 78
2017-08-20 08:00:00 22.5 23 Sur 38 Sur 0 -- -- 82
2017-08-20 07:00:00 22.6 23 Sur 35 Sur 0 -- -- 82
2017-08-20 06:00:00 22.8 21 Sur 34 Sur 0 -- -- 79
2017-08-20 05:00:00 22.9 27 Sur 37 Sur 0 -- -- 79
2017-08-20 04:00:00 23.2 18 Sudoeste 32 Sur 0 -- -- 78
2017-08-20 03:00:00 23.2 17 Sur 33 Sur 0 -- -- 80
2017-08-20 02:00:00 24 19 Sur 29 Sur 0 -- -- 76
2017-08-20 01:00:00 24.1 9 Sur 27 Sur 0 -- -- 74
2017-08-20 00:00:00 24.8 13 Sudoeste 18 Sudoeste 0 -- -- 69
2017-08-19 23:00:00 25.8 11 Sudoeste 19 Sudoeste 0 -- -- 63
2017-08-19 22:00:00 27.4 11 Sur 25 Sur 0 -- -- 53
2017-08-19 21:00:00 29.6 14 Sur 28 Sur 0 -- -- 45
2017-08-19 20:00:00 32.1 21 Sur 30 Sur 0 -- -- 38
2017-08-19 19:00:00 33.9 24 Sur 33 Sudeste 0 -- -- 35
2017-08-19 18:00:00 35.1 26 Sur 37 Sur 0 -- -- 34
2017-08-19 17:00:00 35.8 28 Sur 40 Sur 0 -- -- 33
2017-08-19 16:00:00 36.6 25 Sur 37 Sudeste 0 -- -- 27
2017-08-19 15:00:00 36.3 26 Sur 36 Sudeste 0 -- -- 28
2017-08-19 14:00:00 36.3 23 Sur 32 Sudoeste 0 -- -- 27
2017-08-19 13:00:00 36.8 17 Sur 25 Sur 0 -- -- 26
2017-08-19 12:00:00 34.4 6 Sur 17 Sur 0 -- -- 31
2017-08-19 11:00:00 29.6 6 Sudoeste 10 Sur 0 -- -- 40
2017-08-19 10:00:00 25.4 3 Sudoeste 6 Sur 0 -- -- 50
2017-08-19 09:00:00 21.5 0 Calma 6 Sudoeste 0 -- -- 59
2017-08-19 08:00:00 18.8 5 Sudoeste 9 Sur 0 -- -- 64
2017-08-19 07:00:00 19.7 0 Calma 6 Norte 0 -- -- 63
2017-08-19 06:00:00 20.2 3 Nordeste 8 Norte 0 -- -- 59
2017-08-19 05:00:00 21.5 3 Sur 9 Sur 0 -- -- 59
2017-08-19 04:00:00 22.2 9 Sur 10 Sur 0 -- -- 58
2017-08-19 03:00:00 24 8 Sudoeste 14 Sur 0 -- -- 53
2017-08-19 02:00:00 24.6 8 Sur 13 Sur 0 -- -- 53
2017-08-19 01:00:00 24.8 11 Sur 16 Sur 0 -- -- 53
2017-08-19 00:00:00 26.4 5 Sudoeste 8 Oeste 0 -- -- 50
2017-08-18 23:00:00 27.4 9 Sur 15 Sur 0 -- -- 46
2017-08-18 22:00:00 29.3 10 Sur 16 Sur 0 -- -- 38
2017-08-18 21:00:00 31.9 11 Sur 22 Sur 0 -- -- 33
2017-08-18 20:00:00 34.7 15 Sur 24 Sur 0 -- -- 28
2017-08-18 19:00:00 36.4 14 Sur 28 Sur 0 -- -- 26
2017-08-18 18:00:00 37 17 Sur 29 Sur 0 -- -- 26
2017-08-18 17:00:00 37.5 16 Sur 29 Sur 0 -- -- 23
2017-08-18 16:00:00 37.6 14 Sur 26 Sudeste 0 -- -- 24
2017-08-18 15:00:00 36.3 15 Sur 27 Sur 0 -- -- 31
2017-08-18 14:00:00 35.3 10 Sur 22 Sudoeste 0 -- -- 29
2017-08-18 13:00:00 34.3 12 Sudoeste 26 Sudoeste 0 -- -- 33
2017-08-18 12:00:00 32.8 14 Sur 22 Sudoeste 0 -- -- 34
2017-08-18 11:00:00 29.9 10 Sudoeste 24 Sur 0 -- -- 43
2017-08-18 10:00:00 26.5 9 Sudoeste 17 Sudoeste 0 -- -- 55
2017-08-18 09:00:00 22.4 4 Sudoeste 9 Sur 0 -- -- 80
2017-08-18 08:00:00 20.4 3 Sur 12 Sur 0 -- -- 88
2017-08-18 07:00:00 20.7 8 Sudoeste 10 Sur 0 -- -- 88
2017-08-18 06:00:00 20.8 8 Sur 11 Sur 0 -- -- 87
2017-08-18 05:00:00 21.3 7 Sur 10 Sur 0 -- -- 82
2017-08-18 04:00:00 21.9 4 Sur 7 Sur 0 -- -- 77
2017-08-18 03:00:00 22.9 3 Sur 9 Sur 0 -- -- 74
2017-08-18 02:00:00 23.4 8 Sur 12 Sur 0 -- -- 70
2017-08-18 01:00:00 24 8 Sur 12 Sudoeste 0 -- -- 66
2017-08-18 00:00:00 25.3 7 Sudoeste 21 Sudoeste 0 -- -- 61
2017-08-17 23:00:00 26.4 10 Sudoeste 21 Sur 0 -- -- 54
2017-08-17 22:00:00 27.6 15 Sur 27 Sur 0 -- -- 53
2017-08-17 21:00:00 29.5 19 Sur 32 Sur 0 -- -- 48
2017-08-17 20:00:00 32.1 24 Sur 32 Sur 0 -- -- 41
2017-08-17 19:00:00 34.4 18 Sur 31 Sur 0 -- -- 35
2017-08-17 18:00:00 35.6 19 Sur 29 Sur 0 -- -- 31
2017-08-17 17:00:00 35.5 18 Sur 34 Sur 0 -- -- 31
2017-08-17 16:00:00 35.4 21 Sur 33 Sudeste 0 -- -- 35
2017-08-17 15:00:00 34.7 21 Sur 31 Sur 0 -- -- 34
2017-08-17 14:00:00 33.6 19 Sur 33 Sudoeste 0 -- -- 37
2017-08-17 13:00:00 32 24 Sur 36 Sur 0 -- -- 42
2017-08-17 12:00:00 30.8 23 Sur 33 Sur 0 -- -- 48
2017-08-17 11:00:00 29.2 13 Sur 21 Sur 0 -- -- 51
2017-08-17 10:00:00 25.1 9 Sur 13 Sur 0 -- -- 62
2017-08-17 09:00:00 20.7 2 Sur 9 Sudoeste 0 -- -- 77
2017-08-17 08:00:00 18.4 6 Sur 9 Sur 0 -- -- 77
2017-08-17 07:00:00 19 5 Sur 11 Sur 0 -- -- 76
2017-08-17 06:00:00 19.7 10 Sur 12 Sur 0 -- -- 83
2017-08-17 05:00:00 20.6 6 Sur 13 Sur 0 -- -- 76
2017-08-17 04:00:00 21.7 8 Sudoeste 14 Sudoeste 0 -- -- 70
2017-08-17 03:00:00 21.7 6 Sur 9 Sudoeste 0 -- -- 48
2017-08-17 02:00:00 22.4 5 Norte 12 Sudeste 0 -- -- 32
2017-08-17 01:00:00 25.2 6 Este 10 Sur 0 -- -- 29
2017-08-17 00:00:00 26 6 Sudoeste 11 Sur 0 -- -- 27
2017-08-16 23:00:00 29.4 6 Sudoeste 10 Oeste 0 -- -- 23
2017-08-16 22:00:00 30.8 3 Oeste 17 Oeste 0 -- -- 19
2017-08-16 21:00:00 33.5 15 Oeste 26 Oeste 0 -- -- 16
2017-08-16 20:00:00 35.9 18 Noroeste 31 Noroeste 0 -- -- 16
2017-08-16 19:00:00 36.9 19 Noroeste 27 Noroeste 0 -- -- 16
2017-08-16 18:00:00 37.6 17 Noroeste 29 Noroeste 0 -- -- 16
2017-08-16 17:00:00 37.5 16 Noroeste 29 Oeste 0 -- -- 16
2017-08-16 16:00:00 37.8 9 Oeste 24 Oeste 0 -- -- 17
2017-08-16 15:00:00 36.9 6 Noroeste 19 Noroeste 0 -- -- 19
2017-08-16 14:00:00 36.1 5 Sur 11 Sur 0 -- -- 24
2017-08-16 13:00:00 33.5 5 Sudoeste 9 Sudoeste 0 -- -- 24
2017-08-16 12:00:00 30.8 4 Sudoeste 9 Sudoeste 0 -- -- 33
2017-08-16 11:00:00 27.4 4 Sudoeste 8 Sur 0 -- -- 47
2017-08-16 10:00:00 24.1 0 Calma 5 Sudeste 0 -- -- 70
2017-08-16 09:00:00 20.8 3 Sudeste 4 Sudeste 0 -- -- 78
2017-08-16 08:00:00 18.6 0 Calma 4 Sudeste 0 -- -- 80
2017-08-16 07:00:00 19.1 0 Calma 2 Norte 0 -- -- 75
2017-08-16 06:00:00 19.6 0 Calma -- -- 0 -- -- 72
2017-08-16 05:00:00 21.2 3 Sur 7 Sur 0 -- -- 81
2017-08-16 04:00:00 21.8 7 Sur 8 Sur 0 -- -- 78
2017-08-16 03:00:00 23.1 7 Sur 13 Sudoeste 0 -- -- 72
2017-08-16 02:00:00 24.2 10 Sudoeste 15 Sudoeste 0 -- -- 67
2017-08-16 01:00:00 25.1 8 Sur 14 Sur 0 -- -- 65
2017-08-16 00:00:00 26.2 8 Sur 17 Sudoeste 0 -- -- 60
2017-08-15 23:00:00 27.4 7 Sur 15 Sudoeste 0 -- -- 57
2017-08-15 22:00:00 28.9 10 Sur 20 Sur 0 -- -- 51
2017-08-15 21:00:00 31.3 14 Sur 20 Sur 0 -- -- 45
2017-08-15 20:00:00 33.3 15 Sur 27 Sudeste 0 -- -- 40
2017-08-15 19:00:00 34.1 19 Sudeste 27 Sur 0 -- -- 38
2017-08-15 18:00:00 35.5 17 Sur 32 Sur 0 -- -- 35
2017-08-15 17:00:00 35.7 15 Sudeste 28 Sur 0 -- -- 35
2017-08-15 16:00:00 35.2 8 Oeste 15 Sudoeste 0 -- -- 34
2017-08-15 15:00:00 34.1 6 Sudoeste 20 Sudoeste 0 -- -- 36
2017-08-15 14:00:00 32.6 8 Oeste 17 Oeste 0 -- -- 40
2017-08-15 13:00:00 31.2 9 Sudoeste 14 Sudoeste 0 -- -- 44
2017-08-15 12:00:00 28.7 5 Sudoeste 10 Sudoeste 0 -- -- 51
2017-08-15 11:00:00 26.2 6 Sudoeste 10 Oeste 0 -- -- 64
2017-08-15 10:00:00 23.9 8 Sur 11 Sur 0 -- -- 72
2017-08-15 09:00:00 20.7 4 Sur 8 Norte 0 -- -- 82
2017-08-15 08:00:00 19.1 3 Este 7 Norte 0 -- -- 84
2017-08-15 07:00:00 19.8 3 Nordeste 6 Norte 0 -- -- 86
2017-08-15 06:00:00 20.6 3 Sudoeste 9 Oeste 0 -- -- 82
2017-08-15 05:00:00 21.3 0 Calma 9 Sudoeste 0 -- -- 82
2017-08-15 04:00:00 21.8 3 Sur 14 Sudoeste 0 -- -- 79
2017-08-15 03:00:00 22.4 9 Sur 22 Sudoeste 0 -- -- 77
2017-08-15 02:00:00 22.8 13 Sudoeste 21 Sudoeste 0 -- -- 75
2017-08-15 01:00:00 22.8 16 Sur 31 Sur 0 -- -- 74
2017-08-15 00:00:00 22.9 20 Sur 33 Sur 0 -- -- 71
2017-08-14 23:00:00 23.3 19 Sur 40 Sur 0 -- -- 68
2017-08-14 22:00:00 24.1 23 Sur 37 Sudoeste 0 -- -- 68
2017-08-14 21:00:00 25.4 14 Sur 42 Sur 0 -- -- 60
2017-08-14 20:00:00 27.2 31 Sur 42 Sur 0 -- -- 53
2017-08-14 19:00:00 29.5 24 Sur 35 Sur 0 -- -- 45
2017-08-14 18:00:00 29.4 24 Sur 39 Sur 0 -- -- 45
2017-08-14 17:00:00 30.1 25 Sur 46 Sur 0 -- -- 40
2017-08-14 16:00:00 29.3 33 Sur 48 Sur 0 -- -- 42
2017-08-14 15:00:00 28.9 33 Sur 53 Sur 0 -- -- 43
2017-08-14 14:00:00 27.8 35 Sur 51 Sur 0 -- -- 46
2017-08-14 13:00:00 26.7 37 Sur 53 Sur 0 -- -- 49
2017-08-14 12:00:00 25.5 37 Sur 54 Sur 0 -- -- 54
2017-08-14 11:00:00 24.2 33 Sur 48 Sur 0 -- -- 64
2017-08-14 10:00:00 23 29 Sur 45 Sur 0 -- -- 71
2017-08-14 09:00:00 21.8 25 Sur 40 Sur 0 -- -- 78
2017-08-14 08:00:00 20.8 23 Sur 38 Sur 0 -- -- 83
2017-08-14 07:00:00 20.7 17 Sur 27 Sur 0 -- -- 84
2017-08-14 06:00:00 20.8 18 Sur 27 Sur 0 -- -- 84
2017-08-14 05:00:00 21.1 12 Sur 30 Sur 0 -- -- 81
2017-08-14 04:00:00 21.3 22 Sur 40 Sur 0 -- -- 80
2017-08-14 03:00:00 21.6 25 Sur 42 Sur 0 -- -- 77
2017-08-14 02:00:00 21.5 28 Sur 51 Sur 0 -- -- 79
2017-08-14 01:00:00 21.4 27 Sur 46 Sur 0 -- -- 78
2017-08-14 00:00:00 21.3 30 Sur 45 Sur 0 -- -- 77
2017-08-13 23:00:00 22 30 Sur 46 Sur 0 -- -- 69
2017-08-13 22:00:00 22.7 25 Sur 40 Sur 0 -- -- 66
2017-08-13 21:00:00 24.2 23 Sur 39 Sudoeste 0 -- -- 62
2017-08-13 20:00:00 25.9 26 Sur 42 Sur 0 -- -- 57
2017-08-13 19:00:00 27.5 26 Sur 46 Sur 0 -- -- 49
2017-08-13 18:00:00 28.7 30 Sur 48 Sur 0 -- -- 44
2017-08-13 17:00:00 29.2 32 Sur 46 Sur 0 -- -- 41
2017-08-13 16:00:00 28.7 35 Sur 53 Sur 0 -- -- 45
2017-08-13 15:00:00 29.2 36 Sur 51 Sur 0 -- -- 44
2017-08-13 14:00:00 28.8 32 Sur 48 Sur 0 -- -- 44
2017-08-13 13:00:00 27.6 31 Sur 46 Sur 0 -- -- 48
2017-08-13 12:00:00 26.3 28 Sur 44 Sur 0 -- -- 54
2017-08-13 11:00:00 24.9 25 Sur 40 Sur 0 -- -- 58
2017-08-13 10:00:00 23.4 31 Sur 48 Sur 0 -- -- 59
2017-08-13 09:00:00 21.6 11 Sur 30 Sur 0 -- -- 67
2017-08-13 08:00:00 19.3 15 Sur 28 Sur 0 -- -- 82
2017-08-13 07:00:00 19.4 23 Sur 32 Sur 0 -- -- 83
2017-08-13 06:00:00 19.9 20 Sur 33 Sur 0 -- -- 80
2017-08-13 05:00:00 20.1 25 Sur 35 Sur 0 -- -- 79
2017-08-13 04:00:00 20.4 18 Sur 27 Sur 0 -- -- 76
2017-08-13 03:00:00 20.8 20 Sur 32 Sudoeste 0 -- -- 74
2017-08-13 02:00:00 20.9 24 Sur 39 Sur 0 -- -- 73
2017-08-13 01:00:00 21.5 17 Sur 26 Sur 0 -- -- 68
2017-08-13 00:00:00 22.1 17 Sudoeste 24 Sudoeste 0 -- -- 60
2017-08-12 23:00:00 22.7 8 Sudoeste 23 Sudoeste 0 -- -- 56
2017-08-12 22:00:00 23.3 10 Sudoeste 28 Sur 0 -- -- 53
2017-08-12 21:00:00 24.6 20 Sur 42 Sur 0 -- -- 52
2017-08-12 20:00:00 25.7 28 Sur 46 Sur 0 -- -- 51
2017-08-12 19:00:00 27 29 Sur 46 Sur 0 -- -- 48
2017-08-12 18:00:00 27.9 33 Sur 53 Sur 0 -- -- 43
2017-08-12 17:00:00 28.8 36 Sur 57 Sur 0 -- -- 37
2017-08-12 16:00:00 29.6 36 Sur 53 Sur 0 -- -- 33
2017-08-12 15:00:00 29.9 34 Sur 54 Sur 0 -- -- 33
2017-08-12 14:00:00 29.5 30 Sur 45 Sur 0 -- -- 35
2017-08-12 13:00:00 28 30 Sur 46 Sur 0 -- -- 42
2017-08-12 12:00:00 26.4 30 Sur 47 Sur 0 -- -- 52
2017-08-12 11:00:00 24.6 30 Sur 42 Sur 0 -- -- 59
2017-08-12 10:00:00 22.8 29 Sur 41 Sur 0 -- -- 69
2017-08-12 09:00:00 21.3 24 Sur 39 Sudeste 0 -- -- 76
2017-08-12 08:00:00 20 14 Sur 23 Sur 0 -- -- 80
2017-08-12 07:00:00 19.9 18 Sur 26 Sudeste 0 -- -- 81
2017-08-12 06:00:00 20.5 17 Sur 30 Sur 0 -- -- 76
2017-08-12 05:00:00 20.7 10 Sur 23 Sur 0 -- -- 68
2017-08-12 04:00:00 20.8 6 Sudoeste 15 Sudoeste 0 -- -- 62
2017-08-12 03:00:00 21.6 6 Sudoeste 35 Sur 0 -- -- 52
2017-08-12 02:00:00 22.1 15 Sur 28 Sur 0 -- -- 50
2017-08-12 01:00:00 22 15 Sur 28 Sur 0 -- -- 61
2017-08-12 00:00:00 22.5 17 Sur 32 Sur 0 -- -- 59
2017-08-11 23:00:00 23.4 18 Sur 28 Sur 0 -- -- 53
2017-08-11 22:00:00 24.6 19 Sur 31 Sur 0 -- -- 44
2017-08-11 21:00:00 26.8 20 Sur 32 Sur 0 -- -- 41
2017-08-11 20:00:00 28.4 24 Sur 32 Sur 0 -- -- 39
2017-08-11 19:00:00 29.8 20 Sur 36 Sudeste 0 -- -- 37
2017-08-11 18:00:00 30.6 18 Sur 32 Sur 0 -- -- 35
2017-08-11 17:00:00 30.6 22 Sur 41 Sur 0 -- -- 38
2017-08-11 16:00:00 30.2 23 Sur 39 Sudeste 0 -- -- 40
2017-08-11 15:00:00 29.8 28 Sur 46 Sur 0 -- -- 43
2017-08-11 14:00:00 29.3 27 Sur 47 Sur 0 -- -- 44
2017-08-11 13:00:00 28.2 26 Sur 40 Sur 0 -- -- 48
2017-08-11 12:00:00 26.8 25 Sur 40 Sur 0 -- -- 53
2017-08-11 11:00:00 24.8 26 Sur 37 Sudoeste 0 -- -- 64
2017-08-11 10:00:00 23.5 23 Sur 30 Sur 0 -- -- 70
2017-08-11 09:00:00 22 15 Sur 26 Sur 0 -- -- 78
2017-08-11 08:00:00 20.5 12 Sudeste 26 Sur 0 -- -- 84
2017-08-11 07:00:00 20.4 14 Sur 26 Sur 0 -- -- 82
2017-08-11 06:00:00 20.2 10 Sudeste 20 Sur 0 -- -- 84
2017-08-11 05:00:00 20.6 16 Sur 27 Sur 0 -- -- 83
2017-08-11 04:00:00 20.7 15 Sur 26 Sur 0 -- -- 83
2017-08-11 03:00:00 20.8 19 Sur 32 Sur 0 -- -- 82
2017-08-11 02:00:00 21 21 Sur 34 Sur 0 -- -- 81
2017-08-11 01:00:00 21.5 26 Sur 36 Sur 0 -- -- 80
2017-08-11 00:00:00 21.5 19 Sur 32 Sur 0 -- -- 77
2017-08-10 23:00:00 21.9 19 Sur 36 Sur 0 -- -- 75
2017-08-10 22:00:00 23.2 20 Sur 33 Sur 0 -- -- 67
2017-08-10 21:00:00 24.5 21 Sur 35 Sur 0 -- -- 63
2017-08-10 20:00:00 26.5 27 Sur 36 Sur 0 -- -- 57
2017-08-10 19:00:00 27.9 26 Sur 40 Sur 0 -- -- 52
2017-08-10 18:00:00 28.9 27 Sur 40 Sur 0 -- -- 48
2017-08-10 17:00:00 29.5 28 Sur 42 Sur 0 -- -- 45
2017-08-10 16:00:00 29.9 27 Sur 41 Sur 0 -- -- 43
2017-08-10 15:00:00 29.6 27 Sur 40 Sur 0 -- -- 45
2017-08-10 14:00:00 29.7 26 Sur 40 Sudoeste 0 -- -- 44
2017-08-10 13:00:00 29.2 21 Sur 33 Sur 0 -- -- 47
2017-08-10 12:00:00 27.7 9 Sur 18 Sur 0 -- -- 46
2017-08-10 11:00:00 25.1 5 Oeste 11 Norte 0 -- -- 42
2017-08-10 10:00:00 22.1 2 Sudeste 6 Sudoeste 0 -- -- 44
2017-08-10 09:00:00 18.5 3 Sur 11 Sudoeste 0 -- -- 51
2017-08-10 08:00:00 14.9 8 Sur 10 Sudoeste 0 -- -- 57
2017-08-10 07:00:00 16.3 2 Sudeste 6 Nordeste 0 -- -- 55
2017-08-10 06:00:00 16.7 6 Nordeste 10 Norte 0 -- -- 55
2017-08-10 05:00:00 16.1 0 Calma 8 Norte 0 -- -- 50
2017-08-10 04:00:00 18.2 3 Norte 5 Norte 0 -- -- 46
2017-08-10 03:00:00 19.3 3 Nordeste 5 Nordeste 0 -- -- 45
2017-08-10 02:00:00 20.8 3 Nordeste 9 Este 0 -- -- 46
2017-08-10 01:00:00 21.4 8 Este 12 Este 0 -- -- 43
2017-08-10 00:00:00 22.8 4 Sur 13 Sudoeste 0 -- -- 41
2017-08-09 23:00:00 23.5 5 Sur 19 Oeste 0 -- -- 34
2017-08-09 22:00:00 25.8 12 Oeste 23 Oeste 0 -- -- 23
2017-08-09 21:00:00 28.3 14 Noroeste 26 Noroeste 0 -- -- 18
2017-08-09 20:00:00 29.6 18 Oeste 34 Oeste 0 -- -- 22
2017-08-09 19:00:00 30.4 22 Noroeste 39 Noroeste 0 -- -- 23
2017-08-09 18:00:00 31.9 22 Noroeste 37 Noroeste 0 -- -- 16
2017-08-09 17:00:00 32 23 Noroeste 37 Noroeste 0 -- -- 17
2017-08-09 16:00:00 31.7 21 Noroeste 36 Oeste 0 -- -- 19
2017-08-09 15:00:00 31.5 16 Noroeste 37 Noroeste 0 -- -- 21
2017-08-09 14:00:00 31.4 15 Oeste 30 Noroeste 0 -- -- 18
2017-08-09 13:00:00 31 5 Sudoeste 14 Oeste 0 -- -- 18
2017-08-09 12:00:00 29 3 Sur 11 Oeste 0 -- -- 20
2017-08-09 11:00:00 26.3 6 Sudoeste 10 Sudoeste 0 -- -- 26
2017-08-09 10:00:00 21.6 4 Sudoeste 6 Sudoeste 0 -- -- 34
2017-08-09 09:00:00 18.8 2 Sur 4 Sudeste 0 -- -- 41
2017-08-09 08:00:00 15.3 0 Calma 6 Oeste 0 -- -- 45
2017-08-09 07:00:00 15.1 3 Sudeste 8 Sudeste 0 -- -- 41
2017-08-09 06:00:00 16 0 Calma 6 Oeste 0 -- -- 40
2017-08-09 05:00:00 17 2 Sudeste 4 Sudeste 0 -- -- 37
2017-08-09 04:00:00 18.8 0 Calma 4 Sudoeste 0 -- -- 36
2017-08-09 03:00:00 20.5 5 Sur 12 Este 0 -- -- 35
2017-08-09 02:00:00 23.1 3 Oeste 8 Noroeste 0 -- -- 30
2017-08-09 01:00:00 24.2 8 Noroeste 14 Noroeste 0 -- -- 29
2017-08-09 00:00:00 25.3 6 Oeste 16 Oeste 0 -- -- 26
2017-08-08 23:00:00 27 12 Noroeste 24 Noroeste 0 -- -- 23
2017-08-08 22:00:00 28.5 12 Noroeste 19 Noroeste 0 -- -- 18
2017-08-08 21:00:00 31.5 14 Noroeste 24 Oeste 0 -- -- 16
2017-08-08 20:00:00 33.1 17 Noroeste 27 Norte 0 -- -- 15
2017-08-08 19:00:00 33.6 18 Noroeste 31 Noroeste 0 -- -- 13
2017-08-08 18:00:00 33.9 17 Noroeste 36 Noroeste 0 -- -- 11
2017-08-08 17:00:00 33.7 17 Noroeste 35 Norte 0 -- -- 12
2017-08-08 16:00:00 32.9 16 Noroeste 31 Noroeste 0 -- -- 14
2017-08-08 15:00:00 32.2 18 Noroeste 35 Noroeste 0 -- -- 13
2017-08-08 14:00:00 31.6 14 Noroeste 30 Norte 0 -- -- 13
2017-08-08 13:00:00 29.3 9 Norte 24 Noroeste 0 -- -- 21
2017-08-08 12:00:00 27.3 12 Norte 20 Norte 0 -- -- 27
2017-08-08 11:00:00 28.3 9 Norte 17 Noroeste 0 -- -- 26
2017-08-08 10:00:00 26.3 3 Norte 8 Nordeste 0 -- -- 28
2017-08-08 09:00:00 23.9 0 Calma 8 Norte 0 -- -- 34
2017-08-08 08:00:00 20.6 4 Este 8 Nordeste 0 -- -- 41
2017-08-08 07:00:00 21.4 3 Oeste 9 Norte 0 -- -- 36
2017-08-08 06:00:00 22.6 4 Nordeste 10 Norte 0 -- -- 35
2017-08-08 05:00:00 22.5 6 Nordeste 9 Nordeste 0 -- -- 59
2017-08-08 04:00:00 23.9 3 Sur 7 Sudoeste 0 -- -- 56
2017-08-08 03:00:00 25 6 Sur 8 Sur 0 -- -- 57
2017-08-08 02:00:00 25.9 6 Sur 9 Sudoeste 0 -- -- 51
2017-08-08 01:00:00 28 6 Sudoeste 13 Sudoeste 0 -- -- 49
2017-08-08 00:00:00 29.7 10 Sur 16 Sur 0 -- -- 34
2017-08-07 23:00:00 31.3 7 Oeste 22 Oeste 0 -- -- 33
2017-08-07 22:00:00 32.7 13 Oeste 21 Oeste 0 -- -- 34
2017-08-07 21:00:00 35.3 13 Oeste 23 Oeste 0 -- -- 35
2017-08-07 20:00:00 37.2 11 Oeste 34 Oeste 0 -- -- 28
2017-08-07 19:00:00 36.9 18 Sur 34 Sur 0 -- -- 31
2017-08-07 18:00:00 37.3 21 Sur 32 Sur 0 -- -- 30
2017-08-07 17:00:00 36.7 17 Sur 34 Sur 0 -- -- 28
2017-08-07 16:00:00 37.9 23 Sur 36 Sur 0 -- -- 30
2017-08-07 15:00:00 37.7 19 Sur 33 Sur 0 -- -- 29
2017-08-07 14:00:00 37.1 19 Sur 31 Sur 0 -- -- 27
2017-08-07 13:00:00 35.6 17 Sur 25 Sur 0 -- -- 28
2017-08-07 12:00:00 33.2 12 Sur 21 Sur 0 -- -- 34
2017-08-07 11:00:00 30.1 5 Sudoeste 12 Sudoeste 0 -- -- 46
2017-08-07 10:00:00 27.2 6 Sudoeste 15 Sudoeste 0 -- -- 57
2017-08-07 09:00:00 25.1 12 Sudoeste 19 Sur 0 -- -- 61
2017-08-07 08:00:00 22.8 10 Sur 14 Oeste 0 -- -- 65
2017-08-07 07:00:00 24.2 7 Oeste 12 Sudoeste 0 -- -- 58
2017-08-07 06:00:00 25.3 10 Oeste 21 Sudoeste 0 -- -- 55
2017-08-07 05:00:00 25.5 12 Sudeste 27 Sudoeste 0 -- -- 56
2017-08-07 04:00:00 25.5 9 Sur 25 Sudoeste 0 -- -- 48
2017-08-07 03:00:00 25.2 10 Sudoeste 15 Sudoeste 0 -- -- 43
2017-08-07 02:00:00 25.9 12 Sudoeste 24 Sudoeste 0 -- -- 40
2017-08-07 01:00:00 26.3 5 Sur 16 Sudoeste 0 -- -- 37
2017-08-07 00:00:00 27.1 5 Sudoeste 13 Sur 0 -- -- 36
2017-08-06 23:00:00 29 11 Sudoeste 17 Sudoeste 0 -- -- 33
2017-08-06 22:00:00 30.4 12 Sur 22 Sur 0 -- -- 28
2017-08-06 21:00:00 32.8 17 Sur 34 Sur 0 -- -- 26
2017-08-06 20:00:00 36.6 21 Sudeste 31 Sur 0 -- -- 22
2017-08-06 19:00:00 40.2 14 Oeste 31 Oeste 0 -- -- 10
2017-08-06 18:00:00 40.9 16 Oeste 29 Oeste 0 -- -- 11
2017-08-06 17:00:00 41.3 12 Sudoeste 27 Sudoeste 0 -- -- 13
2017-08-06 16:00:00 40.4 10 Oeste 28 Oeste 0 -- -- 15
2017-08-06 15:00:00 39.6 8 Sur 15 Sur 0 -- -- 17
2017-08-06 14:00:00 38 8 Sur 15 Sudoeste 0 -- -- 20
2017-08-06 13:00:00 36.1 6 Sudeste 10 Sudeste 0 -- -- 22
2017-08-06 12:00:00 33.8 5 Sudoeste 9 Sudoeste 0 -- -- 26
2017-08-06 11:00:00 30.5 3 Sudoeste 7 Sudoeste 0 -- -- 32
2017-08-06 10:00:00 25.8 3 Sudoeste 5 Sudoeste 0 -- -- 36
2017-08-06 09:00:00 22.8 0 Calma 5 Noroeste 0 -- -- 39
2017-08-06 08:00:00 20 0 Calma 3 Sur 0 -- -- 44
2017-08-06 07:00:00 20.1 3 Sur 5 Sudoeste 0 -- -- 50
2017-08-06 06:00:00 21.4 0 Calma 4 Norte 0 -- -- 40
2017-08-06 05:00:00 21.6 0 Calma 8 Sur 0 -- -- 42
2017-08-06 04:00:00 22.7 2 Nordeste 6 Sudeste 0 -- -- 38
2017-08-06 03:00:00 24 5 Este 9 Sudeste 0 -- -- 37
2017-08-06 02:00:00 26 5 Sur 13 Sudoeste 0 -- -- 33
2017-08-06 01:00:00 27.4 9 Sudoeste 13 Sur 0 -- -- 31
2017-08-06 00:00:00 28.1 10 Sur 12 Sur 0 -- -- 30
2017-08-05 23:00:00 29.7 8 Sur 21 Sudoeste 0 -- -- 27
2017-08-05 22:00:00 31.8 9 Sudoeste 15 Sur 0 -- -- 25
2017-08-05 21:00:00 34.7 14 Sur 27 Sur 0 -- -- 21
2017-08-05 20:00:00 37.6 18 Sur 29 Sur 0 -- -- 18
2017-08-05 19:00:00 39.2 19 Sur 33 Sur 0 -- -- 17
2017-08-05 18:00:00 40.3 12 Sur 33 Sur 0 -- -- 16
2017-08-05 17:00:00 40.4 14 Sudeste 33 Sudeste 0 -- -- 16
2017-08-05 16:00:00 40.4 23 Sur 31 Sur 0 -- -- 16
2017-08-05 15:00:00 40.3 13 Sur 29 Sur 0 -- -- 16
2017-08-05 14:00:00 39.1 17 Sur 29 Sudeste 0 -- -- 18
2017-08-05 13:00:00 38.5 16 Sur 27 Sur 0 -- -- 19
2017-08-05 12:00:00 37.4 17 Sur 27 Sur 0 -- -- 19
2017-08-05 11:00:00 33.8 11 Sur 22 Sur 0 -- -- 22
2017-08-05 10:00:00 29.3 3 Sudoeste 6 Sudoeste 0 -- -- 31
2017-08-05 09:00:00 25.3 0 Calma 2 Nordeste 0 -- -- 39
2017-08-05 08:00:00 21.9 0 Calma 4 Sur 0 -- -- 40
2017-08-05 07:00:00 21.9 2 Sur 6 Sur 0 -- -- 41
2017-08-05 06:00:00 21.8 4 Oeste 9 Norte 0 -- -- 41
2017-08-05 05:00:00 24 0 Calma 4 Sudeste 0 -- -- 36
2017-08-05 04:00:00 25.5 3 Sudoeste 12 Sudoeste 0 -- -- 35
2017-08-05 03:00:00 26.4 10 Sudoeste 17 Sudoeste 0 -- -- 33
2017-08-05 02:00:00 26.5 11 Sur 16 Sur 0 -- -- 32
2017-08-05 01:00:00 27.1 7 Sur 10 Sudoeste 0 -- -- 32
2017-08-05 00:00:00 29 8 Sur 12 Sur 0 -- -- 29
2017-08-04 23:00:00 31.2 4 Sudoeste 20 Oeste 0 -- -- 26
2017-08-04 22:00:00 33.1 13 Sur 20 Sur 0 -- -- 23
2017-08-04 21:00:00 36.9 16 Sur 22 Sur 0 -- -- 19
2017-08-04 20:00:00 40.3 9 Sur 20 Noroeste 0 -- -- 15
2017-08-04 19:00:00 41.1 9 Norte 21 Noroeste 0 -- -- 13
2017-08-04 18:00:00 41 6 Nordeste 24 Noroeste 0 -- -- 13
2017-08-04 17:00:00 41.6 5 Sudoeste 13 Sudeste 0 -- -- 12
2017-08-04 16:00:00 40.7 9 Sur 18 Oeste 0 -- -- 12
2017-08-04 15:00:00 40.6 7 Sudoeste 17 Noroeste 0 -- -- 13
2017-08-04 14:00:00 39.4 5 Este 14 Nordeste 0 -- -- 13
2017-08-04 13:00:00 38 6 Nordeste 16 Nordeste 0 -- -- 15
2017-08-04 12:00:00 34.9 5 Sur 8 Norte 0 -- -- 21
2017-08-04 11:00:00 29.3 4 Sudoeste 6 Oeste 0 -- -- 26
2017-08-04 10:00:00 25.8 2 Sudoeste 6 Sur 0 -- -- 31
2017-08-04 09:00:00 22.1 3 Sudeste 4 Sur 0 -- -- 39
2017-08-04 08:00:00 18.5 0 Calma 4 Sur 0 -- -- 40
2017-08-04 07:00:00 19.2 0 Calma 5 Sudeste 0 -- -- 38
2017-08-04 06:00:00 20.2 3 Sur 5 Sudoeste 0 -- -- 39
2017-08-04 05:00:00 21.2 4 Sur 5 Sudeste 0 -- -- 36
2017-08-04 04:00:00 22.2 0 Calma 3 Oeste 0 -- -- 32
2017-08-04 03:00:00 23.2 3 Noroeste 10 Este 0 -- -- 31
2017-08-04 02:00:00 26.6 8 Este 12 Sudeste 0 -- -- 28
2017-08-04 01:00:00 27.2 5 Sudeste 8 Norte 0 -- -- 27
2017-08-04 00:00:00 28.8 6 Oeste 13 Oeste 0 -- -- 24
2017-08-03 23:00:00 29.9 3 Nordeste 6 Norte 0 -- -- 22
2017-08-03 22:00:00 32.5 6 Norte 10 Norte 0 -- -- 19
2017-08-03 21:00:00 36.6 8 Norte 18 Noroeste 0 -- -- 15
2017-08-03 20:00:00 38 13 Norte 26 Noroeste 0 -- -- 13
2017-08-03 19:00:00 38.5 16 Norte 27 Noroeste 0 -- -- 13
2017-08-03 18:00:00 38.4 15 Norte 25 Noroeste 0 -- -- 14
2017-08-03 17:00:00 38.5 9 Norte 24 Noroeste 0 -- -- 14
2017-08-03 16:00:00 38.2 7 Noroeste 24 Noroeste 0 -- -- 13
2017-08-03 15:00:00 37.8 9 Norte 23 Norte 0 -- -- 15
2017-08-03 14:00:00 36.8 7 Nordeste 27 Oeste 0 -- -- 16
2017-08-03 13:00:00 35.1 6 Nordeste 13 Sudoeste 0 -- -- 19
2017-08-03 12:00:00 33.3 5 Sur 12 Este 0 -- -- 23
2017-08-03 11:00:00 28.9 2 Noroeste 6 Sudoeste 0 -- -- 27
2017-08-03 10:00:00 25.3 3 Sur 5 Sur 0 -- -- 31
2017-08-03 09:00:00 21 0 Calma 2 Sudeste 0 -- -- 39
2017-08-03 08:00:00 17.3 0 Calma 5 Noroeste 0 -- -- 45
2017-08-03 07:00:00 18.3 4 Sudeste 6 Sudeste 0 -- -- 45
2017-08-03 06:00:00 17.8 4 Norte 5 Noroeste 0 -- -- 44
2017-08-03 05:00:00 19.6 3 Sur 6 Sur 0 -- -- 42
2017-08-03 04:00:00 20.2 3 Noroeste 7 Este 0 -- -- 40
2017-08-03 03:00:00 23.1 8 Este 10 Este 0 -- -- 35
2017-08-03 02:00:00 23.8 8 Sudeste 15 Sudoeste 0 -- -- 34
2017-08-03 01:00:00 24.2 8 Sur 11 Sur 0 -- -- 34
2017-08-03 00:00:00 27.2 3 Oeste 7 Oeste 0 -- -- 27
2017-08-02 23:00:00 27.8 3 Norte 10 Noroeste 0 -- -- 24
2017-08-02 22:00:00 30.4 10 Noroeste 15 Noroeste 0 -- -- 21
2017-08-02 21:00:00 33.6 11 Noroeste 24 Noroeste 0 -- -- 18
2017-08-02 20:00:00 35.4 11 Noroeste 27 Noroeste 0 -- -- 17
2017-08-02 19:00:00 35.9 12 Noroeste 25 Noroeste 0 -- -- 16
2017-08-02 18:00:00 36.3 10 Noroeste 24 Oeste 0 -- -- 17
2017-08-02 17:00:00 36.1 13 Noroeste 27 Noroeste 0 -- -- 18
2017-08-02 16:00:00 36.2 6 Sur 14 Sur 0 -- -- 15
2017-08-02 15:00:00 34.9 4 Norte 11 Noroeste 0 -- -- 15
2017-08-02 14:00:00 33.9 5 Sur 14 Sudoeste 0 -- -- 12
2017-08-02 13:00:00 32.2 6 Sudoeste 9 Sudoeste 0 -- -- 18
2017-08-02 12:00:00 30 4 Sur 9 Sur 0 -- -- 29
2017-08-02 11:00:00 25.7 3 Oeste 7 Sudoeste 0 -- -- 34
2017-08-02 10:00:00 22.3 3 Sudoeste 6 Oeste 0 -- -- 44
2017-08-02 09:00:00 18.7 3 Sur 4 Sur 0 -- -- 50
2017-08-02 08:00:00 15.4 2 Oeste 5 Sur 0 -- -- 54
2017-08-02 07:00:00 15.8 2 Sur 4 Norte 0 -- -- 57
2017-08-02 06:00:00 16.3 3 Noroeste 9 Sudeste 0 -- -- 53
2017-08-02 05:00:00 17 4 Nordeste 9 Norte 0 -- -- 49
2017-08-02 04:00:00 19.3 2 Este 11 Nordeste 0 -- -- 48
2017-08-02 03:00:00 19 5 Norte 9 Norte 0 -- -- 43
2017-08-02 02:00:00 20.5 3 Este 12 Este 0 -- -- 43
2017-08-02 01:00:00 21.5 0 Calma 11 Sudoeste 0 -- -- 41
2017-08-02 00:00:00 23.9 4 Sudeste 9 Sur 0 -- -- 36
2017-08-01 23:00:00 25.2 4 Sur 9 Oeste 0 -- -- 33
2017-08-01 22:00:00 26.4 6 Oeste 23 Oeste 0 -- -- 31
2017-08-01 21:00:00 28.2 14 Oeste 28 Oeste 0 -- -- 30
2017-08-01 20:00:00 30.1 9 Norte 23 Noroeste 0 -- -- 30
2017-08-01 19:00:00 28.1 17 Noroeste 27 Oeste 0 -- -- 36
2017-08-01 18:00:00 30.6 20 Noroeste 30 Oeste 0 -- -- 33
2017-08-01 17:00:00 30.7 12 Noroeste 30 Noroeste 0 -- -- 32
2017-08-01 16:00:00 30.9 12 Noroeste 27 Noroeste 0 -- -- 32
2017-08-01 15:00:00 29.8 12 Noroeste 21 Noroeste 0 -- -- 33
2017-08-01 14:00:00 29.8 8 Norte 18 Nordeste 0 -- -- 30
2017-08-01 13:00:00 28.4 9 Norte 21 Noroeste 0 -- -- 34
2017-08-01 12:00:00 27.3 10 Noroeste 23 Noroeste 0 -- -- 35
2017-08-01 11:00:00 25.3 6 Nordeste 13 Nordeste 0 -- -- 38
2017-08-01 10:00:00 21.9 3 Norte 7 Nordeste 0 -- -- 45
2017-08-01 09:00:00 18.2 2 Nordeste 6 Norte 0 -- -- 53
2017-08-01 08:00:00 17.3 3 Este 9 Norte 0 -- -- 53
2017-08-01 07:00:00 17.4 4 Norte 10 Sudeste 0 -- -- 47
2017-08-01 06:00:00 18.4 4 Sudeste 9 Sudeste 0 -- -- 44
2017-08-01 05:00:00 19.2 2 Sudeste 12 Noroeste 0 -- -- 46
2017-08-01 04:00:00 20.4 8 Norte 15 Norte 0 -- -- 40
2017-08-01 03:00:00 22.6 4 Noroeste 9 Sur 0 -- -- 37
2017-08-01 02:00:00 24.2 7 Sur 17 Sudoeste 0 -- -- 34
2017-08-01 01:00:00 24.5 8 Sudoeste 14 Sudoeste 0 -- -- 33
2017-08-01 00:00:00 25.9 3 Sudoeste 19 Noroeste 0 -- -- 31
2017-07-31 23:00:00 27.3 12 Oeste 23 Noroeste 0 -- -- 29
2017-07-31 22:00:00 28.6 13 Oeste 32 Oeste 0 -- -- 27
2017-07-31 21:00:00 31.1 17 Noroeste 40 Oeste 0 -- -- 28
2017-07-31 20:00:00 32.9 26 Noroeste 38 Oeste 0 -- -- 29
2017-07-31 19:00:00 34.5 22 Noroeste 33 Noroeste 0 -- -- 28
2017-07-31 18:00:00 35.3 13 Noroeste 29 Noroeste 0 -- -- 25
2017-07-31 17:00:00 35.6 11 Oeste 33 Oeste 0 -- -- 23
2017-07-31 16:00:00 35.1 15 Noroeste 36 Noroeste 0 -- -- 22
2017-07-31 15:00:00 35 13 Noroeste 24 Noroeste 0 -- -- 22
2017-07-31 14:00:00 33.9 9 Oeste 23 Noroeste 0 -- -- 25
2017-07-31 13:00:00 33.1 6 Norte 16 Norte 0 -- -- 28
2017-07-31 12:00:00 30.8 6 Sudoeste 10 Sudoeste 0 -- -- 32
2017-07-31 11:00:00 28.1 3 Noroeste 8 Norte 0 -- -- 39
2017-07-31 10:00:00 24.7 3 Sudoeste 6 Oeste 0 -- -- 44
2017-07-31 09:00:00 22 2 Sur 8 Norte 0 -- -- 49
2017-07-31 08:00:00 20.8 4 Norte 8 Norte 0 -- -- 53
2017-07-31 07:00:00 20.8 6 Norte 9 Norte 0 -- -- 51
2017-07-31 06:00:00 20.2 5 Nordeste 8 Norte 0 -- -- 51
2017-07-31 05:00:00 20.8 3 Noroeste 6 Sur 0 -- -- 47
2017-07-31 04:00:00 22.4 3 Nordeste 10 Norte 0 -- -- 44
2017-07-31 03:00:00 24.7 3 Este 5 Oeste 0 -- -- 44
2017-07-31 02:00:00 26.6 2 Norte 10 Sudoeste 0 -- -- 39
2017-07-31 01:00:00 27.7 2 Sur 13 Sudoeste 0 -- -- 39
2017-07-31 00:00:00 29.4 8 Sudoeste 23 Oeste 0 -- -- 35
2017-07-30 23:00:00 30.7 9 Oeste 19 Sudoeste 0 -- -- 34
2017-07-30 22:00:00 32.1 9 Oeste 20 Noroeste 0 -- -- 35
2017-07-30 21:00:00 34.7 17 Noroeste 30 Noroeste 0 -- -- 28
2017-07-30 20:00:00 37 16 Oeste 30 Noroeste 0 -- -- 23
2017-07-30 19:00:00 38.2 16 Noroeste 30 Noroeste 0 -- -- 23
2017-07-30 18:00:00 38.9 17 Noroeste 28 Noroeste 0 -- -- 22
2017-07-30 17:00:00 39.4 11 Oeste 25 Noroeste 0 -- -- 19
2017-07-30 16:00:00 39.1 12 Oeste 24 Oeste 0 -- -- 18
2017-07-30 15:00:00 38.3 7 Noroeste 26 Oeste 0 -- -- 18
2017-07-30 14:00:00 38.5 7 Este 22 Sur 0 -- -- 18
2017-07-30 13:00:00 36.9 8 Sudoeste 14 Oeste 0 -- -- 19
2017-07-30 12:00:00 34.1 6 Sudoeste 12 Oeste 0 -- -- 21
2017-07-30 11:00:00 30.2 5 Sudoeste 8 Oeste 0 -- -- 26
2017-07-30 10:00:00 25.8 3 Sudoeste 5 Sur 0 -- -- 32
2017-07-30 09:00:00 22 5 Sur 8 Sur 0 -- -- 39
2017-07-30 08:00:00 18.8 0 Calma 6 Noroeste 0 -- -- 44
2017-07-30 07:00:00 19.3 0 Calma 4 Sudeste 0 -- -- 40
2017-07-30 06:00:00 19.7 4 Sudeste 6 Sudeste 0 -- -- 42
2017-07-30 05:00:00 19.8 0 Calma 5 Sudoeste 0 -- -- 41
2017-07-30 04:00:00 21.1 2 Nordeste 7 Noroeste 0 -- -- 36
2017-07-30 03:00:00 23.1 4 Sudeste 6 Sur 0 -- -- 35
2017-07-30 02:00:00 24.9 0 Calma 7 Sudeste 0 -- -- 30
2017-07-30 01:00:00 27.1 5 Sudeste 10 Sudeste 0 -- -- 29
2017-07-30 00:00:00 30 3 Este 13 Noroeste 0 -- -- 26
2017-07-29 23:00:00 31 4 Oeste 13 Oeste 0 -- -- 25
2017-07-29 22:00:00 32.4 8 Sudoeste 25 Oeste 0 -- -- 23
2017-07-29 21:00:00 35.2 17 Noroeste 27 Oeste 0 -- -- 19
2017-07-29 20:00:00 36.9 19 Noroeste 33 Noroeste 0 -- -- 19
2017-07-29 19:00:00 38.1 14 Oeste 33 Noroeste 0 -- -- 17
2017-07-29 18:00:00 38.7 14 Noroeste 34 Noroeste 0 -- -- 16
2017-07-29 17:00:00 39 12 Oeste 27 Noroeste 0 -- -- 15
2017-07-29 16:00:00 38.6 19 Noroeste 32 Oeste 0 -- -- 15
2017-07-29 15:00:00 39.1 8 Noroeste 23 Noroeste 0 -- -- 15
2017-07-29 14:00:00 38.2 5 Sudoeste 14 Sudoeste 0 -- -- 16
2017-07-29 13:00:00 35.8 6 Sudoeste 10 Oeste 0 -- -- 17
2017-07-29 12:00:00 34.6 3 Sur 9 Sur 0 -- -- 18
2017-07-29 11:00:00 30.2 3 Este 6 Este 0 -- -- 24
2017-07-29 10:00:00 25.2 3 Sur 5 Sur 0 -- -- 32
2017-07-29 09:00:00 21.7 0 Calma 6 Norte 0 -- -- 36
2017-07-29 08:00:00 17.8 2 Sudoeste 7 Sur 0 -- -- 45
2017-07-29 07:00:00 17.8 4 Sur 5 Sur 0 -- -- 45
2017-07-29 06:00:00 19 4 Sur 6 Sudeste 0 -- -- 41
2017-07-29 05:00:00 19.3 4 Este 5 Nordeste 0 -- -- 39
2017-07-29 04:00:00 21.1 6 Norte 8 Noroeste 0 -- -- 34
2017-07-29 03:00:00 22.2 3 Norte 6 Norte 0 -- -- 32
2017-07-29 02:00:00 24.6 4 Este 12 Este 0 -- -- 30
2017-07-29 01:00:00 25.9 5 Este 13 Norte 0 -- -- 28
2017-07-29 00:00:00 28 4 Sur 8 Sudeste 0 -- -- 28
2017-07-28 23:00:00 30.8 5 Sudoeste 22 Oeste 0 -- -- 24
2017-07-28 22:00:00 32.3 11 Oeste 23 Noroeste 0 -- -- 20
2017-07-28 21:00:00 35.7 14 Noroeste 31 Noroeste 0 -- -- 16
2017-07-28 20:00:00 37.6 19 Noroeste 28 Noroeste 0 -- -- 16
2017-07-28 19:00:00 39.1 7 Noroeste 32 Noroeste 0 -- -- 14
2017-07-28 18:00:00 39.1 14 Noroeste 29 Noroeste 0 -- -- 13
2017-07-28 17:00:00 38.8 14 Noroeste 29 Oeste 0 -- -- 13
2017-07-28 16:00:00 39.1 12 Norte 32 Noroeste 0 -- -- 16
2017-07-28 15:00:00 38.4 6 Norte 22 Noroeste 0 -- -- 16
2017-07-28 14:00:00 37.6 12 Oeste 21 Noroeste 0 -- -- 16
2017-07-28 13:00:00 36.5 6 Sudoeste 10 Oeste 0 -- -- 20
2017-07-28 12:00:00 33.7 3 Sudeste 9 Sudoeste 0 -- -- 24
2017-07-28 11:00:00 30 3 Sudoeste 5 Sudoeste 0 -- -- 32
2017-07-28 10:00:00 26.4 3 Sur 6 Sudeste 0 -- -- 45
2017-07-28 09:00:00 22.5 2 Sudeste 4 Sur 0 -- -- 56
2017-07-28 08:00:00 18.9 0 Calma 4 Noroeste 0 -- -- 60
2017-07-28 07:00:00 18.4 5 Norte 6 Norte 0 -- -- 62
2017-07-28 06:00:00 19.6 4 Sudoeste 7 Sudoeste 0 -- -- 58
2017-07-28 05:00:00 21.2 4 Norte 8 Nordeste 0 -- -- 55
2017-07-28 04:00:00 22.2 5 Sudoeste 8 Sudoeste 0 -- -- 55
2017-07-28 03:00:00 22.8 3 Noroeste 8 Oeste 0 -- -- 48
2017-07-28 02:00:00 24.7 6 Sur 18 Sur 0 -- -- 49
2017-07-28 01:00:00 25.5 4 Sudoeste 13 Sur 0 -- -- 47
2017-07-28 00:00:00 27 8 Sur 14 Sur 0 -- -- 44
2017-07-27 23:00:00 28.6 10 Sur 17 Sur 0 -- -- 39
2017-07-27 22:00:00 31 8 Sur 15 Sur 0 -- -- 36
2017-07-27 21:00:00 34.1 7 Sur 21 Sur 0 -- -- 30
2017-07-27 20:00:00 35.5 15 Sudeste 24 Sudeste 0 -- -- 27
2017-07-27 19:00:00 37.3 14 Sur 25 Sur 0 -- -- 23
2017-07-27 18:00:00 37.4 16 Sudeste 28 Sudeste 0 -- -- 22
2017-07-27 17:00:00 37.9 9 Sudeste 17 Sur 0 -- -- 22
2017-07-27 16:00:00 37.5 8 Sudoeste 16 Sudoeste 0 -- -- 23
2017-07-27 15:00:00 36.8 9 Sur 19 Sur 0 -- -- 26
2017-07-27 14:00:00 35.4 6 Sudoeste 19 Sur 0 -- -- 29
2017-07-27 13:00:00 34.5 7 Sur 23 Sur 0 -- -- 29
2017-07-27 12:00:00 32.4 11 Sur 22 Sur 0 -- -- 37
2017-07-27 11:00:00 29.2 10 Sur 18 Sur 0 -- -- 51
2017-07-27 10:00:00 25.1 9 Sudoeste 14 Sudoeste 0 -- -- 64
2017-07-27 09:00:00 22.1 8 Sudoeste 12 Sur 0 -- -- 74
2017-07-27 08:00:00 19.5 6 Sur 10 Sur 0 -- -- 82
2017-07-27 07:00:00 19.3 8 Sur 9 Sur 0 -- -- 81
2017-07-27 06:00:00 20.1 3 Sur 9 Sur 0 -- -- 80
2017-07-27 05:00:00 20.7 6 Sur 11 Sur 0 -- -- 78
2017-07-27 04:00:00 21.4 9 Sur 14 Sur 0 -- -- 75
2017-07-27 03:00:00 22.4 10 Sur 14 Sur 0 -- -- 71
2017-07-27 02:00:00 23.5 12 Sur 14 Sur 0 -- -- 67
2017-07-27 01:00:00 24.4 8 Sur 11 Sur 0 -- -- 58
2017-07-27 00:00:00 25.8 8 Sur 13 Sur 0 -- -- 43
2017-07-26 23:00:00 27.9 4 Oeste 10 Noroeste 0 -- -- 37
2017-07-26 22:00:00 30.1 9 Noroeste 14 Noroeste 0 -- -- 32
2017-07-26 21:00:00 32.5 11 Noroeste 19 Oeste 0 -- -- 29
2017-07-26 20:00:00 34 14 Noroeste 25 Noroeste 0 -- -- 26
2017-07-26 19:00:00 34.8 14 Noroeste 22 Noroeste 0 -- -- 22
2017-07-26 18:00:00 35.3 12 Noroeste 21 Oeste 0 -- -- 21
2017-07-26 17:00:00 35.3 14 Oeste 25 Noroeste 0 -- -- 22
2017-07-26 16:00:00 34.7 15 Norte 22 Noroeste 0 -- -- 27
2017-07-26 15:00:00 34.2 5 Sudoeste 15 Sudoeste 0 -- -- 28
2017-07-26 14:00:00 32.5 4 Sur 12 Noroeste 0 -- -- 34
2017-07-26 13:00:00 30.8 5 Oeste 12 Sudoeste 0 -- -- 39
2017-07-26 12:00:00 28.6 7 Sudoeste 15 Sudoeste 0 -- -- 46
2017-07-26 11:00:00 27 8 Sur 16 Sudoeste 0 -- -- 59
2017-07-26 10:00:00 24.4 10 Sudoeste 17 Sur 0 -- -- 69
2017-07-26 09:00:00 21.9 9 Sudoeste 14 Sudoeste 0 -- -- 80
2017-07-26 08:00:00 19.9 6 Sudoeste 11 Sudoeste 0 -- -- 85
2017-07-26 07:00:00 19.4 7 Sur 10 Sur 0 -- -- 81
2017-07-26 06:00:00 19.8 2 Sur 10 Sur 0 -- -- 81
2017-07-26 05:00:00 20.7 6 Sur 13 Sudoeste 0 -- -- 76
2017-07-26 04:00:00 21.8 10 Sudoeste 14 Sudoeste 0 -- -- 73
2017-07-26 03:00:00 22 3 Sudoeste 8 Sur 0 -- -- 68
2017-07-26 02:00:00 23 6 Sur 12 Sur 0 -- -- 63
2017-07-26 01:00:00 24.3 7 Sudoeste 14 Sur 0 -- -- 60
2017-07-26 00:00:00 25.7 9 Sur 14 Sudoeste 0 -- -- 57
2017-07-25 23:00:00 27.2 8 Sur 19 Sudoeste 0 -- -- 53
2017-07-25 22:00:00 29.3 11 Sur 23 Sur 0 -- -- 46
2017-07-25 21:00:00 33.1 14 Oeste 27 Oeste 0 -- -- 32
2017-07-25 20:00:00 34.6 18 Oeste 36 Oeste 0 -- -- 29
2017-07-25 19:00:00 36.5 16 Noroeste 28 Oeste 0 -- -- 20
2017-07-25 18:00:00 37.2 20 Oeste 33 Oeste 0 -- -- 18
2017-07-25 17:00:00 37.5 16 Sudoeste 28 Sur 0 -- -- 17
2017-07-25 16:00:00 36.4 12 Sur 31 Sur 0 -- -- 27
2017-07-25 15:00:00 36.6 10 Nordeste 25 Norte 0 -- -- 19
2017-07-25 14:00:00 36.1 5 Sur 20 Sur 0 -- -- 21
2017-07-25 13:00:00 34.3 7 Sudoeste 14 Oeste 0 -- -- 23
2017-07-25 12:00:00 31.8 6 Sudoeste 10 Sudoeste 0 -- -- 29
2017-07-25 11:00:00 28.9 4 Sudoeste 6 Oeste 0 -- -- 33
2017-07-25 10:00:00 24.3 3 Oeste 4 Sudoeste 0 -- -- 40
2017-07-25 09:00:00 21 3 Sudoeste 4 Sudoeste 0 -- -- 47
2017-07-25 08:00:00 18.8 0 Calma 4 Norte 0 -- -- 54
2017-07-25 07:00:00 18.7 2 Sudoeste 4 Sudeste 0 -- -- 53
2017-07-25 06:00:00 19.6 0 Calma 5 Sudeste 0 -- -- 49
2017-07-25 05:00:00 20.3 0 Calma 5 Oeste 0 -- -- 49
2017-07-25 04:00:00 21.5 3 Sur 6 Sudeste 0 -- -- 49
2017-07-25 03:00:00 22.2 3 Nordeste 7 Sudeste 0 -- -- 43
2017-07-25 02:00:00 25.2 7 Sudeste 11 Sur 0 -- -- 39
2017-07-25 01:00:00 26.8 5 Sudeste 11 Sur 0 -- -- 36
2017-07-25 00:00:00 27.9 8 Noroeste 13 Noroeste 0 -- -- 36
2017-07-24 23:00:00 29.7 9 Noroeste 21 Oeste 0 -- -- 33
2017-07-24 22:00:00 31.9 13 Noroeste 23 Noroeste 0 -- -- 29
2017-07-24 21:00:00 34.9 11 Noroeste 24 Noroeste 0 -- -- 21
2017-07-24 20:00:00 36 12 Noroeste 31 Noroeste 0 -- -- 19
2017-07-24 19:00:00 36.3 17 Noroeste 33 Noroeste 0 -- -- 18
2017-07-24 18:00:00 36.1 16 Noroeste 35 Noroeste 0 -- -- 20
2017-07-24 17:00:00 36 13 Noroeste 34 Noroeste 0 -- -- 19
2017-07-24 16:00:00 35.9 16 Noroeste 30 Noroeste 0 -- -- 18
2017-07-24 15:00:00 35.3 14 Noroeste 31 Noroeste 0 -- -- 18
2017-07-24 14:00:00 34.6 15 Noroeste 27 Noroeste 0 -- -- 22
2017-07-24 13:00:00 33.6 8 Oeste 15 Noroeste 0 -- -- 23
2017-07-24 12:00:00 31 4 Sur 10 Sudoeste 0 -- -- 28
2017-07-24 11:00:00 28.2 4 Sudoeste 7 Sudoeste 0 -- -- 33
2017-07-24 10:00:00 23.8 3 Sudoeste 5 Sudoeste 0 -- -- 40
2017-07-24 09:00:00 19.9 2 Sur 4 Norte 0 -- -- 49
2017-07-24 08:00:00 17.2 0 Calma 5 Sur 0 -- -- 52
2017-07-24 07:00:00 16.5 4 Sur 5 Sur 0 -- -- 57
2017-07-24 06:00:00 18.1 2 Norte 4 Norte 0 -- -- 51
2017-07-24 05:00:00 18.5 0 Calma 6 Noroeste 0 -- -- 51
2017-07-24 04:00:00 18.6 2 Norte 8 Norte 0 -- -- 47
2017-07-24 03:00:00 21 3 Sur 6 Norte 0 -- -- 44
2017-07-24 02:00:00 23.4 3 Sudeste 13 Sudoeste 0 -- -- 41
2017-07-24 01:00:00 24.8 8 Sur 13 Sudoeste 0 -- -- 40
2017-07-24 00:00:00 27.1 9 Oeste 21 Oeste 0 -- -- 37
2017-07-23 23:00:00 27.9 8 Noroeste 18 Oeste 0 -- -- 34
2017-07-23 22:00:00 30.2 8 Noroeste 19 Noroeste 0 -- -- 21
2017-07-23 21:00:00 33.7 11 Noroeste 25 Noroeste 0 -- -- 17
2017-07-23 20:00:00 35.1 16 Noroeste 28 Noroeste 0 -- -- 16
2017-07-23 19:00:00 35.6 15 Noroeste 26 Noroeste 0 -- -- 16
2017-07-23 18:00:00 35.7 12 Norte 31 Noroeste 0 -- -- 16
2017-07-23 17:00:00 35.9 14 Norte 25 Norte 0 -- -- 15
2017-07-23 16:00:00 35.4 8 Norte 21 Nordeste 0 -- -- 19
2017-07-23 15:00:00 35 8 Sur 16 Oeste 0 -- -- 16
2017-07-23 14:00:00 33.6 6 Oeste 22 Noroeste 0 -- -- 19
2017-07-23 13:00:00 31.8 5 Noroeste 15 Nordeste 0 -- -- 24
2017-07-23 12:00:00 29.9 3 Norte 11 Noroeste 0 -- -- 25
2017-07-23 11:00:00 27.5 3 Sur 6 Sur 0 -- -- 34
2017-07-23 10:00:00 22.7 3 Sudoeste 5 Oeste 0 -- -- 44
2017-07-23 09:00:00 19.3 2 Sudoeste 8 Noroeste 0 -- -- 52
2017-07-23 08:00:00 16.4 3 Norte 8 Noroeste 0 -- -- 53
2017-07-23 07:00:00 17.3 5 Norte 8 Norte 0 -- -- 54
2017-07-23 06:00:00 18.2 5 Noroeste 7 Noroeste 0 -- -- 51
2017-07-23 05:00:00 19.5 3 Oeste 6 Noroeste 0 -- -- 50
2017-07-23 04:00:00 21 3 Este 10 Nordeste 0 -- -- 49
2017-07-23 03:00:00 21.5 8 Nordeste 10 Nordeste 0 -- -- 47
2017-07-23 02:00:00 22.7 2 Noroeste 10 Sur 0 -- -- 44
2017-07-23 01:00:00 24.2 8 Sur 19 Sudoeste 0 -- -- 41
2017-07-23 00:00:00 25.7 12 Sudoeste 19 Oeste 0 -- -- 40
2017-07-22 23:00:00 26.7 12 Oeste 19 Oeste 0 -- -- 35
2017-07-22 22:00:00 28.9 12 Noroeste 21 Noroeste 0 -- -- 27
2017-07-22 21:00:00 31.7 15 Noroeste 22 Noroeste 0 -- -- 24
2017-07-22 20:00:00 33.3 10 Noroeste 29 Noroeste 0 -- -- 22
2017-07-22 19:00:00 34.2 13 Noroeste 32 Noroeste 0 -- -- 21
2017-07-22 18:00:00 34.3 8 Noroeste 24 Oeste 0 -- -- 20
2017-07-22 17:00:00 33.4 11 Noroeste 24 Norte 0 -- -- 21
2017-07-22 16:00:00 33.3 10 Norte 24 Norte 0 -- -- 23
2017-07-22 15:00:00 32.4 4 Sudoeste 14 Oeste 0 -- -- 20
2017-07-22 14:00:00 30.5 5 Sur 15 Noroeste 0 -- -- 27
2017-07-22 13:00:00 28.4 6 Norte 15 Norte 0 -- -- 32
2017-07-22 12:00:00 26.3 3 Sudoeste 23 Norte 0 -- -- 37
2017-07-22 11:00:00 24.4 3 Sudeste 7 Nordeste 0 -- -- 42
2017-07-22 10:00:00 20.4 3 Sudoeste 5 Oeste 0 -- -- 56
2017-07-22 09:00:00 17.1 0 Calma 3 Este 0 -- -- 62
2017-07-22 08:00:00 13.5 0 Calma 3 Sudeste 0 -- -- 68
2017-07-22 07:00:00 13.2 3 Sur 5 Sudeste 0 -- -- 70
2017-07-22 06:00:00 14.1 2 Sudeste 10 Norte 0 -- -- 67
2017-07-22 05:00:00 15.3 6 Norte 9 Norte 0 -- -- 66
2017-07-22 04:00:00 15.6 8 Norte 10 Norte 0 -- -- 64
2017-07-22 03:00:00 15.8 3 Norte 5 Nordeste 0 -- -- 56
2017-07-22 02:00:00 18.1 3 Nordeste 7 Norte 0 -- -- 60
2017-07-22 01:00:00 19 6 Norte 8 Nordeste 0 -- -- 53
2017-07-22 00:00:00 20.3 0 Calma 9 Noroeste 0 -- -- 40